createdAt,value
2018-01-13T00:00:59.390Z,1022.18
2018-01-13T00:01:58.624Z,1022.20
2018-01-13T00:05:58.485Z,1022.15
2018-01-13T00:06:59.088Z,1022.18
2018-01-13T00:07:59.136Z,1022.16
2018-01-13T00:08:58.520Z,1022.16
2018-01-13T00:09:58.798Z,1022.19
2018-01-13T00:10:58.760Z,1022.19
2018-01-13T00:11:58.686Z,1022.16
2018-01-13T00:13:58.730Z,1022.16
2018-01-13T00:14:59.029Z,1022.16
2018-01-13T00:15:58.778Z,1022.19
2018-01-13T00:16:58.741Z,1022.15
2018-01-13T00:17:58.771Z,1022.17
2018-01-13T00:18:58.798Z,1022.20
2018-01-13T00:19:58.831Z,1022.16
2018-01-13T00:20:58.855Z,1022.16
2018-01-13T00:21:59.237Z,1022.15
2018-01-13T00:22:58.920Z,1022.12
2018-01-13T00:23:58.948Z,1022.14
2018-01-13T00:24:58.986Z,1022.13
2018-01-13T00:25:59.010Z,1022.14
2018-01-13T00:26:59.039Z,1022.12
2018-01-13T00:27:59.072Z,1022.12
2018-01-13T00:28:59.402Z,1022.12
2018-01-13T00:29:59.134Z,1022.12
2018-01-13T00:30:59.163Z,1022.11
2018-01-13T00:32:59.225Z,1022.06
2018-01-13T00:33:59.254Z,1022.08
2018-01-13T00:34:59.288Z,1022.09
2018-01-13T00:35:59.614Z,1022.11
2018-01-13T00:36:59.649Z,1022.05
2018-01-13T00:37:59.380Z,1022.06
2018-01-13T00:38:59.406Z,1022.07
2018-01-13T00:39:59.436Z,1022.06
2018-01-13T00:40:59.517Z,1022.04
2018-01-13T00:41:59.498Z,1022.05
2018-01-13T00:42:59.886Z,1022.07
2018-01-13T00:43:59.562Z,1022.06
2018-01-13T00:44:59.592Z,1022.06
2018-01-13T00:45:59.621Z,1022.05
2018-01-13T00:46:59.656Z,1022.02
2018-01-13T00:47:59.682Z,1022.05
2018-01-13T00:48:59.719Z,1022.01
2018-01-13T00:51:00.073Z,1021.99
2018-01-13T00:51:59.805Z,1022.03
2018-01-13T00:52:59.844Z,1021.99
2018-01-13T00:54:59.899Z,1021.96
2018-01-13T00:55:59.934Z,1021.96
2018-01-13T00:56:59.955Z,1021.97
2018-01-13T00:58:00.344Z,1021.92
2018-01-13T00:59:00.068Z,1021.88
2018-01-13T01:00:00.063Z,1021.91
2018-01-13T01:01:00.086Z,1021.89
2018-01-13T01:02:00.171Z,1021.90
2018-01-13T01:03:00.149Z,1021.91
2018-01-13T01:04:00.189Z,1021.89
2018-01-13T01:05:00.580Z,1021.85
2018-01-13T01:06:00.235Z,1021.88
2018-01-13T01:07:00.260Z,1021.89
2018-01-13T01:08:00.295Z,1021.88
2018-01-13T01:09:00.335Z,1021.90
2018-01-13T01:10:00.352Z,1021.91
2018-01-13T01:11:00.384Z,1021.93
2018-01-13T01:12:00.717Z,1021.90
2018-01-13T01:14:00.473Z,1021.88
2018-01-13T01:15:00.509Z,1021.88
2018-01-13T01:16:00.541Z,1021.91
2018-01-13T01:17:00.572Z,1021.91
2018-01-13T01:18:00.599Z,1021.90
2018-01-13T01:19:00.981Z,1021.83
2018-01-13T01:20:00.660Z,1021.84
2018-01-13T01:21:00.690Z,1021.85
2018-01-13T01:22:00.731Z,1021.86
2018-01-13T01:23:00.752Z,1021.85
2018-01-13T01:24:00.785Z,1021.84
2018-01-13T01:25:00.812Z,1021.85
2018-01-13T01:26:01.200Z,1021.85
2018-01-13T01:27:00.874Z,1021.87
2018-01-13T01:28:00.930Z,1021.90
2018-01-13T01:29:00.984Z,1021.87
2018-01-13T01:30:01.150Z,1021.89
2018-01-13T01:31:01.051Z,1021.92
2018-01-13T01:32:01.376Z,1021.94
2018-01-13T01:33:01.059Z,1021.94
2018-01-13T01:34:01.093Z,1021.92
2018-01-13T01:35:01.139Z,1021.92
2018-01-13T01:36:01.145Z,1021.92
2018-01-13T01:37:01.188Z,1021.93
2018-01-13T01:38:01.569Z,1021.94
2018-01-13T01:39:01.239Z,1021.93
2018-01-13T01:40:01.271Z,1021.88
2018-01-13T01:41:01.358Z,1021.88
2018-01-13T01:42:01.331Z,1021.84
2018-01-13T01:43:01.368Z,1021.86
2018-01-13T01:44:01.742Z,1021.88
2018-01-13T01:45:01.423Z,1021.90
2018-01-13T01:46:01.451Z,1021.86
2018-01-13T01:47:01.494Z,1021.90
2018-01-13T01:48:01.514Z,1021.87
2018-01-13T01:49:01.543Z,1021.85
2018-01-13T01:50:01.575Z,1021.88
2018-01-13T01:51:01.954Z,1021.84
2018-01-13T01:52:01.658Z,1021.77
2018-01-13T01:53:01.664Z,1021.84
2018-01-13T01:54:01.697Z,1021.83
2018-01-13T01:55:01.728Z,1021.84
2018-01-13T01:56:01.765Z,1021.81
2018-01-13T01:57:01.786Z,1021.79
2018-01-13T01:58:02.183Z,1021.78
2018-01-13T01:59:01.851Z,1021.76
2018-01-13T02:00:01.891Z,1021.77
2018-01-13T02:01:01.924Z,1021.78
2018-01-13T02:02:01.940Z,1021.78
2018-01-13T02:03:01.970Z,1021.77
2018-01-13T02:04:02.031Z,1021.75
2018-01-13T02:05:02.657Z,1021.80
2018-01-13T02:06:02.205Z,1021.77
2018-01-13T02:07:02.101Z,1021.80
2018-01-13T02:08:02.132Z,1021.78
2018-01-13T02:09:02.160Z,1021.78
2018-01-13T02:10:02.183Z,1021.78
2018-01-13T02:11:02.221Z,1021.74
2018-01-13T02:12:02.546Z,1021.75
2018-01-13T02:13:02.280Z,1021.71
2018-01-13T02:14:02.304Z,1021.73
2018-01-13T02:15:02.335Z,1021.73
2018-01-13T02:16:02.368Z,1021.72
2018-01-13T02:17:02.415Z,1021.65
2018-01-13T02:18:02.435Z,1021.69
2018-01-13T02:19:03.670Z,1021.68
2018-01-13T02:20:02.497Z,1021.67
2018-01-13T02:21:02.532Z,1021.63
2018-01-13T02:22:02.556Z,1021.66
2018-01-13T02:23:02.684Z,1021.60
2018-01-13T02:24:02.621Z,1021.58
2018-01-13T02:25:02.658Z,1021.60
2018-01-13T02:26:03.025Z,1021.61
2018-01-13T02:27:02.702Z,1021.58
2018-01-13T02:28:02.762Z,1021.59
2018-01-13T02:30:02.800Z,1021.55
2018-01-13T02:31:02.923Z,1021.55
2018-01-13T02:32:02.861Z,1021.57
2018-01-13T02:33:03.266Z,1021.55
2018-01-13T02:34:02.968Z,1021.54
2018-01-13T02:35:02.951Z,1021.55
2018-01-13T02:36:02.997Z,1021.57
2018-01-13T02:37:03.012Z,1021.53
2018-01-13T02:38:03.053Z,1021.55
2018-01-13T02:39:03.097Z,1021.56
2018-01-13T02:40:03.402Z,1021.58
2018-01-13T02:41:03.133Z,1021.56
2018-01-13T02:42:03.159Z,1021.54
2018-01-13T02:43:03.192Z,1021.53
2018-01-13T02:44:03.222Z,1021.53
2018-01-13T02:45:03.252Z,1021.52
2018-01-13T02:46:03.283Z,1021.52
2018-01-13T02:47:03.704Z,1021.48
2018-01-13T02:48:03.353Z,1021.49
2018-01-13T02:49:03.440Z,1021.49
2018-01-13T02:50:03.421Z,1021.48
2018-01-13T02:51:03.485Z,1021.44
2018-01-13T02:52:03.471Z,1021.47
2018-01-13T02:53:03.499Z,1021.44
2018-01-13T02:54:03.831Z,1021.48
2018-01-13T02:55:03.560Z,1021.46
2018-01-13T02:56:03.673Z,1021.38
2018-01-13T02:57:03.629Z,1021.41
2018-01-13T02:58:03.653Z,1021.41
2018-01-13T02:59:03.689Z,1021.44
2018-01-13T03:00:03.730Z,1021.38
2018-01-13T03:01:04.134Z,1021.40
2018-01-13T03:02:03.769Z,1021.44
2018-01-13T03:03:03.947Z,1021.41
2018-01-13T03:04:03.886Z,1021.40
2018-01-13T03:05:03.866Z,1021.44
2018-01-13T03:06:03.892Z,1021.41
2018-01-13T03:07:03.925Z,1021.39
2018-01-13T03:08:03.983Z,1021.41
2018-01-13T03:09:03.986Z,1021.39
2018-01-13T03:10:04.019Z,1021.39
2018-01-13T03:11:04.051Z,1021.36
2018-01-13T03:12:04.081Z,1021.36
2018-01-13T03:13:04.554Z,1021.39
2018-01-13T03:14:04.165Z,1021.34
2018-01-13T03:15:04.189Z,1021.32
2018-01-13T03:16:04.206Z,1021.37
2018-01-13T03:17:04.269Z,1021.33
2018-01-13T03:18:04.260Z,1021.32
2018-01-13T03:19:04.661Z,1021.32
2018-01-13T03:20:04.342Z,1021.30
2018-01-13T03:21:04.447Z,1021.30
2018-01-13T03:22:04.404Z,1021.31
2018-01-13T03:23:04.415Z,1021.28
2018-01-13T03:24:04.456Z,1021.27
2018-01-13T03:25:04.474Z,1021.28
2018-01-13T03:26:04.861Z,1021.31
2018-01-13T03:27:04.535Z,1021.25
2018-01-13T03:28:04.566Z,1021.26
2018-01-13T03:29:04.605Z,1021.25
2018-01-13T03:30:04.702Z,1021.29
2018-01-13T03:31:04.660Z,1021.23
2018-01-13T03:32:04.709Z,1021.29
2018-01-13T03:33:05.078Z,1021.24
2018-01-13T03:34:04.775Z,1021.28
2018-01-13T03:35:04.786Z,1021.24
2018-01-13T03:36:04.814Z,1021.25
2018-01-13T03:37:04.845Z,1021.23
2018-01-13T03:38:04.872Z,1021.21
2018-01-13T03:39:04.915Z,1021.22
2018-01-13T03:40:05.287Z,1021.22
2018-01-13T03:41:04.970Z,1021.20
2018-01-13T03:42:04.994Z,1021.23
2018-01-13T03:43:05.078Z,1021.24
2018-01-13T03:44:05.060Z,1021.23
2018-01-13T03:45:05.090Z,1021.24
2018-01-13T03:46:05.128Z,1021.24
2018-01-13T03:47:05.495Z,1021.24
2018-01-13T03:48:05.227Z,1021.24
2018-01-13T03:49:05.209Z,1021.22
2018-01-13T03:50:05.240Z,1021.23
2018-01-13T03:51:05.297Z,1021.26
2018-01-13T03:52:05.303Z,1021.25
2018-01-13T03:53:05.329Z,1021.22
2018-01-13T03:54:05.733Z,1021.23
2018-01-13T03:55:05.395Z,1021.23
2018-01-13T03:56:05.440Z,1021.24
2018-01-13T03:57:05.505Z,1021.25
2018-01-13T03:58:05.699Z,1021.22
2018-01-13T03:59:05.526Z,1021.24
2018-01-13T04:00:05.583Z,1021.25
2018-01-13T04:01:05.930Z,1021.22
2018-01-13T04:02:05.605Z,1021.19
2018-01-13T04:03:05.643Z,1021.21
2018-01-13T04:04:05.678Z,1021.19
2018-01-13T04:05:05.768Z,1021.18
2018-01-13T04:06:05.728Z,1021.17
2018-01-13T04:07:05.757Z,1021.15
2018-01-13T04:08:06.088Z,1021.17
2018-01-13T04:09:05.854Z,1021.11
2018-01-13T04:10:05.853Z,1021.14
2018-01-13T04:11:05.887Z,1021.13
2018-01-13T04:13:05.970Z,1021.15
2018-01-13T04:14:05.980Z,1021.11
2018-01-13T04:15:06.362Z,1021.10
2018-01-13T04:16:06.039Z,1021.16
2018-01-13T04:18:06.168Z,1021.05
2018-01-13T04:19:06.135Z,1021.10
2018-01-13T04:20:06.157Z,1021.03
2018-01-13T04:21:06.197Z,1021.04
2018-01-13T04:22:06.216Z,1021.03
2018-01-13T04:23:06.266Z,1021.06
2018-01-13T04:24:06.277Z,1021.07
2018-01-13T04:25:06.326Z,1021.02
2018-01-13T04:26:06.347Z,1021.07
2018-01-13T04:27:06.368Z,1021.06
2018-01-13T04:28:06.401Z,1021.02
2018-01-13T04:29:06.428Z,1021.03
2018-01-13T04:30:06.463Z,1021.03
2018-01-13T04:31:06.492Z,1021.04
2018-01-13T04:32:06.523Z,1021.03
2018-01-13T04:33:06.552Z,1021.03
2018-01-13T04:34:06.935Z,1021.05
2018-01-13T04:36:06.754Z,1021.02
2018-01-13T04:37:06.676Z,1020.99
2018-01-13T04:39:06.760Z,1021.04
2018-01-13T04:40:07.119Z,1021.03
2018-01-13T04:41:06.799Z,1020.97
2018-01-13T04:42:06.880Z,1020.97
2018-01-13T04:43:06.918Z,1020.96
2018-01-13T04:44:06.891Z,1020.99
2018-01-13T04:45:06.922Z,1021.00
2018-01-13T04:46:07.252Z,1021.00
2018-01-13T04:48:07.067Z,1021.00
2018-01-13T04:49:07.050Z,1020.92
2018-01-13T04:50:07.071Z,1020.98
2018-01-13T04:51:07.116Z,1020.93
2018-01-13T04:52:07.133Z,1020.91
2018-01-13T04:53:07.468Z,1020.91
2018-01-13T04:54:07.207Z,1020.87
2018-01-13T04:55:07.279Z,1020.91
2018-01-13T04:56:07.278Z,1020.86
2018-01-13T04:57:07.288Z,1020.89
2018-01-13T04:58:07.320Z,1020.86
2018-01-13T04:59:07.654Z,1020.84
2018-01-13T05:00:07.733Z,1020.87
2018-01-13T05:01:07.408Z,1020.81
2018-01-13T05:02:07.441Z,1020.80
2018-01-13T05:03:07.472Z,1020.80
2018-01-13T05:04:07.510Z,1020.80
2018-01-13T05:05:07.534Z,1020.80
2018-01-13T05:06:07.591Z,1020.80
2018-01-13T05:07:07.946Z,1020.84
2018-01-13T05:08:07.673Z,1020.83
2018-01-13T05:09:07.655Z,1020.82
2018-01-13T05:10:07.684Z,1020.82
2018-01-13T05:11:07.799Z,1020.82
2018-01-13T05:12:07.748Z,1020.83
2018-01-13T05:13:07.866Z,1020.83
2018-01-13T05:14:08.208Z,1020.81
2018-01-13T05:15:07.839Z,1020.83
2018-01-13T05:17:07.914Z,1020.80
2018-01-13T05:18:07.956Z,1020.82
2018-01-13T05:19:07.969Z,1020.78
2018-01-13T05:20:07.991Z,1020.80
2018-01-13T05:22:08.352Z,1020.79
2018-01-13T05:23:08.088Z,1020.86
2018-01-13T05:24:08.113Z,1020.88
2018-01-13T05:25:09.464Z,1020.85
2018-01-13T05:27:08.204Z,1020.86
2018-01-13T05:28:08.235Z,1020.83
2018-01-13T05:29:08.567Z,1020.82
2018-01-13T05:30:08.297Z,1020.84
2018-01-13T05:31:08.331Z,1020.83
2018-01-13T05:32:08.360Z,1020.86
2018-01-13T05:33:08.386Z,1020.86
2018-01-13T05:34:08.426Z,1020.85
2018-01-13T05:35:08.451Z,1020.84
2018-01-13T05:36:08.780Z,1020.83
2018-01-13T05:37:08.510Z,1020.79
2018-01-13T05:38:08.538Z,1020.82
2018-01-13T05:39:08.641Z,1020.87
2018-01-13T05:40:08.602Z,1020.81
2018-01-13T05:41:08.639Z,1020.86
2018-01-13T05:42:08.666Z,1020.82
2018-01-13T05:43:09.014Z,1020.79
2018-01-13T05:44:08.723Z,1020.84
2018-01-13T05:45:08.764Z,1020.83
2018-01-13T05:46:08.863Z,1020.83
2018-01-13T05:47:08.872Z,1020.83
2018-01-13T05:48:08.905Z,1020.84
2018-01-13T05:49:08.932Z,1020.80
2018-01-13T05:50:09.268Z,1020.80
2018-01-13T05:51:08.939Z,1020.82
2018-01-13T05:52:08.972Z,1020.84
2018-01-13T05:53:08.997Z,1020.83
2018-01-13T05:54:09.034Z,1020.79
2018-01-13T05:55:09.085Z,1020.78
2018-01-13T05:56:09.147Z,1020.82
2018-01-13T05:57:09.472Z,1020.80
2018-01-13T05:58:09.171Z,1020.82
2018-01-13T05:59:09.183Z,1020.80
2018-01-13T06:00:09.283Z,1020.77
2018-01-13T06:01:09.265Z,1020.79
2018-01-13T06:02:09.273Z,1020.77
2018-01-13T06:03:09.311Z,1020.83
2018-01-13T06:04:09.741Z,1020.78
2018-01-13T06:05:09.369Z,1020.73
2018-01-13T06:06:09.405Z,1020.81
2018-01-13T06:07:09.435Z,1020.77
2018-01-13T06:08:09.522Z,1020.77
2018-01-13T06:09:09.501Z,1020.76
2018-01-13T06:11:09.550Z,1020.77
2018-01-13T06:12:09.928Z,1020.78
2018-01-13T06:13:09.795Z,1020.76
2018-01-13T06:14:09.653Z,1020.79
2018-01-13T06:15:09.671Z,1020.78
2018-01-13T06:16:09.705Z,1020.79
2018-01-13T06:17:09.732Z,1020.78
2018-01-13T06:18:09.812Z,1020.80
2018-01-13T06:19:10.249Z,1020.74
2018-01-13T06:20:09.826Z,1020.77
2018-01-13T06:22:09.949Z,1020.73
2018-01-13T06:24:09.960Z,1020.74
2018-01-13T06:25:09.987Z,1020.74
2018-01-13T06:26:10.571Z,1020.74
2018-01-13T06:27:10.102Z,1020.76
2018-01-13T06:28:10.081Z,1020.74
2018-01-13T06:29:10.102Z,1020.77
2018-01-13T06:30:10.222Z,1020.79
2018-01-13T06:31:10.171Z,1020.80
2018-01-13T06:32:10.292Z,1020.78
2018-01-13T06:33:10.576Z,1020.74
2018-01-13T06:34:10.262Z,1020.80
2018-01-13T06:35:10.313Z,1020.75
2018-01-13T06:36:10.311Z,1020.76
2018-01-13T06:37:10.343Z,1020.74
2018-01-13T06:38:10.470Z,1020.76
2018-01-13T06:39:10.411Z,1020.78
2018-01-13T06:40:10.438Z,1020.73
2018-01-13T06:41:10.473Z,1020.75
2018-01-13T06:42:10.501Z,1020.72
2018-01-13T06:43:10.539Z,1020.77
2018-01-13T06:44:10.620Z,1020.77
2018-01-13T06:45:10.587Z,1020.76
2018-01-13T06:46:10.987Z,1020.79
2018-01-13T06:47:10.706Z,1020.77
2018-01-13T06:48:10.680Z,1020.76
2018-01-13T06:49:10.707Z,1020.78
2018-01-13T06:50:10.742Z,1020.76
2018-01-13T06:51:10.786Z,1020.77
2018-01-13T06:52:11.162Z,1020.74
2018-01-13T06:53:10.860Z,1020.81
2018-01-13T06:54:10.863Z,1020.73
2018-01-13T06:55:10.901Z,1020.72
2018-01-13T06:56:10.974Z,1020.72
2018-01-13T06:57:10.966Z,1020.74
2018-01-13T06:58:11.342Z,1020.71
2018-01-13T06:59:11.015Z,1020.75
2018-01-13T07:00:11.051Z,1020.72
2018-01-13T07:01:11.088Z,1020.70
2018-01-13T07:02:11.137Z,1020.72
2018-01-13T07:03:11.154Z,1020.70
2018-01-13T07:04:11.535Z,1020.70
2018-01-13T07:05:11.197Z,1020.69
2018-01-13T07:06:11.346Z,1020.74
2018-01-13T07:07:11.261Z,1020.68
2018-01-13T07:08:11.292Z,1020.69
2018-01-13T07:09:11.320Z,1020.69
2018-01-13T07:10:11.370Z,1020.70
2018-01-13T07:11:11.384Z,1020.67
2018-01-13T07:12:11.417Z,1020.72
2018-01-13T07:13:11.493Z,1020.68
2018-01-13T07:14:11.486Z,1020.69
2018-01-13T07:15:12.845Z,1020.67
2018-01-13T07:16:11.586Z,1020.68
2018-01-13T07:17:11.925Z,1020.71
2018-01-13T07:18:11.633Z,1020.68
2018-01-13T07:19:11.630Z,1020.69
2018-01-13T07:20:11.686Z,1020.71
2018-01-13T07:21:11.691Z,1020.73
2018-01-13T07:22:11.716Z,1020.75
2018-01-13T07:23:11.747Z,1020.73
2018-01-13T07:24:12.142Z,1020.74
2018-01-13T07:25:11.808Z,1020.75
2018-01-13T07:26:11.842Z,1020.78
2018-01-13T07:27:11.885Z,1020.78
2018-01-13T07:28:11.952Z,1020.78
2018-01-13T07:29:11.930Z,1020.77
2018-01-13T07:30:11.966Z,1020.77
2018-01-13T07:31:12.343Z,1020.78
2018-01-13T07:32:12.044Z,1020.77
2018-01-13T07:33:12.051Z,1020.74
2018-01-13T07:34:12.104Z,1020.79
2018-01-13T07:36:12.149Z,1020.74
2018-01-13T07:37:12.239Z,1020.77
2018-01-13T07:38:12.559Z,1020.73
2018-01-13T07:39:12.321Z,1020.78
2018-01-13T07:40:12.266Z,1020.78
2018-01-13T07:41:12.302Z,1020.81
2018-01-13T07:42:12.329Z,1020.79
2018-01-13T07:43:12.361Z,1020.81
2018-01-13T07:45:12.423Z,1020.80
2018-01-13T07:47:12.834Z,1020.76
2018-01-13T07:48:12.564Z,1020.75
2018-01-13T07:49:12.545Z,1020.80
2018-01-13T07:50:12.574Z,1020.80
2018-01-13T07:51:12.604Z,1020.79
2018-01-13T07:52:12.633Z,1020.83
2018-01-13T07:54:12.702Z,1020.84
2018-01-13T07:55:13.081Z,1020.81
2018-01-13T07:56:12.792Z,1020.79
2018-01-13T07:57:12.860Z,1020.81
2018-01-13T07:58:12.883Z,1020.83
2018-01-13T07:59:12.908Z,1020.82
2018-01-13T08:00:12.904Z,1020.83
2018-01-13T08:01:12.921Z,1020.83
2018-01-13T08:02:13.406Z,1020.84
2018-01-13T08:03:13.173Z,1020.85
2018-01-13T08:04:13.162Z,1020.87
2018-01-13T08:05:13.105Z,1020.87
2018-01-13T08:06:13.119Z,1020.81
2018-01-13T08:07:13.173Z,1020.86
2018-01-13T08:08:13.184Z,1020.86
2018-01-13T08:09:13.746Z,1020.82
2018-01-13T08:10:13.438Z,1020.83
2018-01-13T08:11:13.280Z,1020.84
2018-01-13T08:12:13.248Z,1020.87
2018-01-13T08:13:13.295Z,1020.89
2018-01-13T08:14:13.343Z,1020.86
2018-01-13T08:15:13.406Z,1020.84
2018-01-13T08:16:13.745Z,1020.90
2018-01-13T08:17:13.423Z,1020.92
2018-01-13T08:18:13.498Z,1020.95
2018-01-13T08:19:13.534Z,1020.96
2018-01-13T08:20:13.560Z,1020.97
2018-01-13T08:21:13.589Z,1020.95
2018-01-13T08:22:13.628Z,1021.01
2018-01-13T08:23:13.942Z,1020.98
2018-01-13T08:24:13.635Z,1021.03
2018-01-13T08:25:13.726Z,1021.05
2018-01-13T08:26:13.742Z,1021.05
2018-01-13T08:28:13.817Z,1021.03
2018-01-13T08:29:13.778Z,1021.04
2018-01-13T08:32:13.940Z,1021.08
2018-01-13T08:33:13.908Z,1021.06
2018-01-13T08:34:13.980Z,1021.07
2018-01-13T08:35:14.011Z,1021.09
2018-01-13T08:36:14.036Z,1021.09
2018-01-13T08:37:14.383Z,1021.05
2018-01-13T08:38:14.076Z,1021.09
2018-01-13T08:39:14.130Z,1021.09
2018-01-13T08:40:14.158Z,1021.10
2018-01-13T08:42:14.220Z,1021.12
2018-01-13T08:43:14.263Z,1021.15
2018-01-13T08:44:14.581Z,1021.09
2018-01-13T08:45:14.280Z,1021.15
2018-01-13T08:46:14.376Z,1021.12
2018-01-13T08:47:14.350Z,1021.10
2018-01-13T08:48:14.416Z,1021.12
2018-01-13T08:49:14.385Z,1021.11
2018-01-13T08:50:14.468Z,1021.15
2018-01-13T08:52:14.849Z,1021.16
2018-01-13T08:53:14.499Z,1021.19
2018-01-13T08:54:14.593Z,1021.21
2018-01-13T08:55:14.609Z,1021.20
2018-01-13T08:56:15.660Z,1021.23
2018-01-13T08:57:14.680Z,1021.21
2018-01-13T08:58:14.712Z,1021.23
2018-01-13T08:59:15.056Z,1021.24
2018-01-13T09:00:14.803Z,1021.26
2018-01-13T09:01:14.768Z,1021.26
2018-01-13T09:02:14.851Z,1021.25
2018-01-13T09:03:14.850Z,1021.33
2018-01-13T09:04:14.868Z,1021.29
2018-01-13T09:05:14.923Z,1021.27
2018-01-13T09:06:15.259Z,1021.25
2018-01-13T09:07:14.949Z,1021.27
2018-01-13T09:08:15.019Z,1021.31
2018-01-13T09:09:15.069Z,1021.33
2018-01-13T09:10:15.050Z,1021.30
2018-01-13T09:11:15.061Z,1021.27
2018-01-13T09:12:15.090Z,1021.32
2018-01-13T09:13:15.490Z,1021.32
2018-01-13T09:14:15.207Z,1021.32
2018-01-13T09:15:15.188Z,1021.33
2018-01-13T09:16:15.216Z,1021.36
2018-01-13T09:17:15.242Z,1021.35
2018-01-13T09:18:15.339Z,1021.38
2018-01-13T09:19:15.373Z,1021.37
2018-01-13T09:20:15.743Z,1021.34
2018-01-13T09:21:15.384Z,1021.36
2018-01-13T09:22:15.456Z,1021.38
2018-01-13T09:23:15.486Z,1021.36
2018-01-13T09:24:16.072Z,1021.38
2018-01-13T09:25:15.501Z,1021.37
2018-01-13T09:26:15.587Z,1021.46
2018-01-13T09:27:15.898Z,1021.49
2018-01-13T09:28:15.594Z,1021.47
2018-01-13T09:29:15.610Z,1021.51
2018-01-13T09:30:15.699Z,1021.48
2018-01-13T09:31:15.747Z,1021.46
2018-01-13T09:33:15.740Z,1021.46
2018-01-13T09:34:16.140Z,1021.45
2018-01-13T09:35:15.791Z,1021.45
2018-01-13T09:36:15.957Z,1021.42
2018-01-13T09:37:15.867Z,1021.45
2018-01-13T09:38:15.960Z,1021.44
2018-01-13T09:39:15.921Z,1021.46
2018-01-13T09:40:15.950Z,1021.44
2018-01-13T09:41:16.392Z,1021.45
2018-01-13T09:42:16.079Z,1021.47
2018-01-13T09:43:16.058Z,1021.48
2018-01-13T09:44:16.069Z,1021.51
2018-01-13T09:45:16.122Z,1021.57
2018-01-13T09:46:16.137Z,1021.57
2018-01-13T09:47:16.181Z,1021.48
2018-01-13T09:48:16.547Z,1021.51
2018-01-13T09:49:16.221Z,1021.53
2018-01-13T09:50:16.249Z,1021.53
2018-01-13T09:51:16.301Z,1021.53
2018-01-13T09:52:16.337Z,1021.54
2018-01-13T09:53:16.342Z,1021.54
2018-01-13T09:54:16.377Z,1021.57
2018-01-13T09:55:16.776Z,1021.58
2018-01-13T09:56:16.449Z,1021.57
2018-01-13T09:57:16.464Z,1021.60
2018-01-13T09:58:16.497Z,1021.56
2018-01-13T09:59:16.527Z,1021.59
2018-01-13T10:00:16.555Z,1021.56
2018-01-13T10:01:16.942Z,1021.54
2018-01-13T10:02:16.637Z,1021.54
2018-01-13T10:03:16.667Z,1021.55
2018-01-13T10:04:16.906Z,1021.59
2018-01-13T10:06:16.776Z,1021.60
2018-01-13T10:07:17.745Z,1021.58
2018-01-13T10:09:16.845Z,1021.60
2018-01-13T10:10:16.864Z,1021.60
2018-01-13T10:11:16.951Z,1021.58
2018-01-13T10:12:17.004Z,1021.60
2018-01-13T10:13:17.412Z,1021.62
2018-01-13T10:14:17.037Z,1021.62
2018-01-13T10:15:17.415Z,1021.59
2018-01-13T10:16:17.052Z,1021.60
2018-01-13T10:17:17.086Z,1021.61
2018-01-13T10:18:17.119Z,1021.62
2018-01-13T10:21:17.554Z,1021.57
2018-01-13T10:22:17.245Z,1021.57
2018-01-13T10:23:30.012Z,1021.53
2018-01-13T10:26:17.365Z,1021.45
2018-01-13T10:28:17.421Z,1021.41
2018-01-13T10:29:17.803Z,1021.39
2018-01-13T10:30:17.488Z,1021.44
2018-01-13T10:31:17.517Z,1021.40
2018-01-13T10:33:17.618Z,1021.41
2018-01-13T10:34:17.861Z,1021.43
2018-01-13T10:35:18.001Z,1021.43
2018-01-13T10:38:17.746Z,1021.46
2018-01-13T10:41:18.205Z,1021.39
2018-01-13T10:43:17.895Z,1021.42
2018-01-13T10:44:17.924Z,1021.40
2018-01-13T10:45:17.956Z,1021.36
2018-01-13T10:46:18.188Z,1021.33
2018-01-13T10:47:18.008Z,1021.33
2018-01-13T10:48:18.393Z,1021.33
2018-01-13T10:53:18.247Z,1021.33
2018-01-13T10:54:19.640Z,1021.28
2018-01-13T10:55:18.609Z,1021.30
2018-01-13T10:56:18.289Z,1021.28
2018-01-13T10:57:18.520Z,1021.30
2018-01-13T10:58:18.565Z,1021.29
2018-01-13T10:59:31.119Z,1021.31
2018-01-13T11:01:18.450Z,1021.28
2018-01-13T11:03:18.857Z,1021.26
2018-01-13T11:04:18.536Z,1021.24
2018-01-13T11:05:18.598Z,1021.20
2018-01-13T11:06:18.606Z,1021.19
2018-01-13T11:07:18.645Z,1021.20
2018-01-13T11:09:19.060Z,1021.22
2018-01-13T11:10:18.720Z,1021.16
2018-01-13T11:11:18.785Z,1021.15
2018-01-13T11:12:19.062Z,1021.15
2018-01-13T11:13:19.436Z,1021.10
2018-01-13T11:14:18.844Z,1021.09
2018-01-13T11:15:18.902Z,1021.08
2018-01-13T11:16:19.272Z,1021.11
2018-01-13T11:17:18.995Z,1021.12
2018-01-13T11:18:18.999Z,1021.06
2018-01-13T11:20:19.096Z,1021.08
2018-01-13T11:22:19.096Z,1021.08
2018-01-13T11:24:20.113Z,1021.04
2018-01-13T11:25:19.200Z,1021.09
2018-01-13T11:29:19.353Z,1020.99
2018-01-13T11:30:19.346Z,1021.00
2018-01-13T11:32:19.964Z,1020.94
2018-01-13T11:33:19.643Z,1020.94
2018-01-13T11:34:19.467Z,1020.94
2018-01-13T11:39:19.981Z,1020.90
2018-01-13T11:40:19.866Z,1020.85
2018-01-13T11:41:19.695Z,1020.90
2018-01-13T11:43:21.165Z,1020.85
2018-01-13T11:46:19.880Z,1020.87
2018-01-13T11:47:20.426Z,1020.82
2018-01-13T11:49:21.628Z,1020.85
2018-01-13T11:50:19.973Z,1020.80
2018-01-13T11:52:20.243Z,1020.85
2018-01-13T11:53:21.486Z,1020.79
2018-01-13T11:56:20.507Z,1020.72
2018-01-13T11:57:20.185Z,1020.70
2018-01-13T11:58:20.873Z,1020.70
2018-01-13T11:59:20.250Z,1020.70
2018-01-13T12:00:20.339Z,1020.65
2018-01-13T12:06:21.028Z,1020.54
2018-01-13T12:10:20.608Z,1020.46
2018-01-13T12:12:20.659Z,1020.44
2018-01-13T12:17:21.164Z,1020.47
2018-01-13T12:19:21.134Z,1020.44
2018-01-13T12:20:21.109Z,1020.39
2018-01-13T12:21:20.963Z,1020.39
2018-01-13T12:22:21.214Z,1020.33
2018-01-13T12:23:34.095Z,1020.33
2018-01-13T12:27:21.329Z,1020.32
2018-01-13T12:28:21.156Z,1020.30
2018-01-13T12:29:21.199Z,1020.28
2018-01-13T12:33:21.898Z,1020.22
2018-01-13T12:39:21.854Z,1020.09
2018-01-13T12:43:28.055Z,1020.10
2018-01-13T12:46:22.077Z,1020.14
2018-01-13T12:49:22.073Z,1020.09
2018-01-13T12:56:23.056Z,1019.98
2018-01-13T12:57:25.128Z,1019.99
2018-01-13T12:58:22.123Z,1019.96
2018-01-13T13:02:22.654Z,1020.00
2018-01-13T13:06:22.960Z,1019.95
2018-01-13T13:10:35.575Z,1019.90
2018-01-13T13:11:23.985Z,1020.00
2018-01-13T13:13:23.267Z,1019.95
2018-01-13T13:15:22.643Z,1019.94
2018-01-13T13:16:22.926Z,1019.90
2018-01-13T13:17:23.102Z,1019.93
2018-01-13T13:18:48.406Z,1019.86
2018-01-13T13:21:22.836Z,1019.86
2018-01-13T13:23:23.258Z,1019.86
2018-01-13T13:24:22.954Z,1019.83
2018-01-13T13:25:24.414Z,1019.77
2018-01-13T13:26:22.995Z,1019.76
2018-01-13T13:31:26.540Z,1019.68
2018-01-13T13:32:23.204Z,1019.65
2018-01-13T13:34:23.239Z,1019.66
2018-01-13T13:35:23.324Z,1019.59
2018-01-13T13:36:23.354Z,1019.59
2018-01-13T13:37:23.912Z,1019.58
2018-01-13T13:41:24.955Z,1019.59
2018-01-13T13:42:23.506Z,1019.56
2018-01-13T13:45:23.941Z,1019.40
2018-01-13T13:46:29.911Z,1019.44
2018-01-13T13:51:24.328Z,1019.35
2018-01-13T13:53:23.869Z,1019.34
2018-01-13T13:56:24.533Z,1019.38
2018-01-13T13:58:24.343Z,1019.35
2018-01-13T13:59:24.315Z,1019.45
2018-01-13T14:01:28.710Z,1019.36
2018-01-13T14:02:24.338Z,1019.35
2018-01-13T14:03:24.762Z,1019.33
2018-01-13T14:04:25.592Z,1019.36
2018-01-13T14:07:26.048Z,1019.36
2018-01-13T14:09:24.337Z,1019.35
2018-01-13T14:11:24.459Z,1019.29
2018-01-13T14:14:24.882Z,1019.24
2018-01-13T14:15:24.580Z,1019.26
2018-01-13T14:16:25.973Z,1019.29
2018-01-13T14:17:24.600Z,1019.28
2018-01-13T14:19:24.952Z,1019.26
2018-01-13T14:21:26.087Z,1019.29
2018-01-13T14:22:24.954Z,1019.30
2018-01-13T14:23:37.516Z,1019.35
2018-01-13T14:24:24.837Z,1019.30
2018-01-13T14:25:24.839Z,1019.27
2018-01-13T14:26:24.877Z,1019.26
2018-01-13T14:30:26.040Z,1019.28
2018-01-13T14:33:25.110Z,1019.22
2018-01-13T14:34:25.146Z,1019.20
2018-01-13T14:36:25.757Z,1019.21
2018-01-13T14:37:25.433Z,1019.24
2018-01-13T14:40:25.324Z,1019.14
2018-01-13T14:41:25.551Z,1019.15